Time;durP1;ratioP1;P1;durP2;ratioP2;P2;SDS_P1;SDS_P2;PMS_P1;PMS_P2;Temp;Humidity;BMP_temperature;BMP_pressure;BME280_temperature;BME280_humidity;BME280_pressure;Samples;Min_cycle;Max_cycle;Signal;HPM_P1;HPM_P2
2023/05/05 00:02:23;;;;;;;;;;;9.60;99.90;;;;;;5097114;28;19916;-54
2023/05/05 00:04:48;;;;;;;;;;;9.60;99.90;;;;;;5097349;28;19919;-53
2023/05/05 00:07:14;;;;;;;;;;;9.50;99.90;;;;;;5097566;28;19919;-53
2023/05/05 00:09:40;;;;;;;;;;;9.40;99.90;;;;;;5097187;28;19916;-53
2023/05/05 00:12:06;;;;;;;;;;;9.30;99.90;;;;;;5096903;28;19957;-53
2023/05/05 00:14:32;;;;;;;;;;;9.40;99.90;;;;;;5097292;28;19919;-53
2023/05/05 00:16:58;;;;;;;;;;;9.40;99.90;;;;;;5097320;28;19916;-53
2023/05/05 00:19:23;;;;;;;;;;;9.40;99.90;;;;;;5097031;28;20018;-53
2023/05/05 00:21:49;;;;;;;;;;;9.40;99.90;;;;;;5097203;28;19916;-53
2023/05/05 00:24:15;;;;;;;;;;;9.50;99.90;;;;;;5097013;28;20431;-53
2023/05/05 00:26:41;;;;;;;;;;;9.40;99.90;;;;;;5097232;28;20039;-53
2023/05/05 00:29:07;;;;;;;;;;;9.50;99.90;;;;;;5097036;28;19967;-53
2023/05/05 00:31:33;;;;;;;;;;;9.40;99.90;;;;;;5097083;28;19912;-53
2023/05/05 00:33:58;;;;;;;;;;;9.30;99.90;;;;;;5078846;28;20358;-53
2023/05/05 00:36:24;;;;;;;;;;;9.30;99.90;;;;;;5096872;28;19962;-53
2023/05/05 00:38:50;;;;;;;;;;;9.30;99.90;;;;;;5096903;28;19928;-53
2023/05/05 00:41:16;;;;;;;;;;;9.30;99.90;;;;;;5096746;28;19912;-54
2023/05/05 00:43:42;;;;;;;;;;;9.30;99.90;;;;;;5096820;28;19915;-53
2023/05/05 00:46:24;;;;;;;;;;;9.20;99.90;;;;;;5078539;28;19912;-53
2023/05/05 00:48:50;;;;;;;;;;;9.20;99.90;;;;;;5078509;28;20305;-53
2023/05/05 00:51:16;;;;;;;;;;;9.20;99.90;;;;;;5078435;28;20015;-53
2023/05/05 00:53:43;;;;;;;;;;;9.20;99.90;;;;;;5096486;28;19973;-53
2023/05/05 00:56:13;;;;;;;;;;;9.20;99.90;;;;;;5096479;28;20061;-53
2023/05/05 00:58:40;;;;;;;;;;;9.30;99.90;;;;;;5096801;28;19923;-53
2023/05/05 01:01:06;;;;;;;;;;;9.30;99.90;;;;;;5096285;28;20011;-53
2023/05/05 01:03:32;;;;;;;;;;;9.30;99.90;;;;;;5096441;28;19911;-54
2023/05/05 01:06:04;;;;;;;;;;;9.30;99.90;;;;;;5096376;28;19912;-54
2023/05/05 01:08:49;;;;;;;;;;;9.30;99.90;;;;;;5096082;28;19912;-53
2023/05/05 01:11:34;;;;;;;;;;;9.30;99.90;;;;;;5095835;28;20273;-53
2023/05/05 01:14:05;;;;;;;;;;;9.40;99.90;;;;;;5096268;28;19916;-53
2023/05/05 01:16:32;;;;;;;;;;;9.30;99.90;;;;;;5096027;28;19919;-54
2023/05/05 01:19:16;;;;;;;;;;;9.30;99.90;;;;;;5096114;28;19948;-53
2023/05/05 01:21:45;;;;;;;;;;;9.30;99.90;;;;;;5095920;28;19916;-53
2023/05/05 01:24:17;;;;;;;;;;;9.20;99.90;;;;;;5095975;28;20424;-53
2023/05/05 01:27:01;;;;;;;;;;;9.10;99.90;;;;;;5096131;28;19919;-53
2023/05/05 01:29:57;;;;;;;;;;;9.10;99.90;;;;;;5095807;28;19912;-53
2023/05/05 01:32:27;;;;;;;;;;;9.00;99.90;;;;;;5068729;28;19916;-54
2023/05/05 01:34:57;;;;;;;;;;;8.90;99.90;;;;;;5096079;28;19987;-53
2023/05/05 01:37:29;;;;;;;;;;;8.90;99.90;;;;;;5077320;28;19927;-53
2023/05/05 01:39:57;;;;;;;;;;;8.90;99.90;;;;;;5095826;28;19919;-53
2023/05/05 01:42:24;;;;;;;;;;;8.90;99.90;;;;;;5095394;28;20366;-54
2023/05/05 01:44:51;;;;;;;;;;;8.80;99.90;;;;;;5095476;28;19962;-53
2023/05/05 01:47:18;;;;;;;;;;;8.80;99.90;;;;;;5077604;28;20010;-53
2023/05/05 01:49:45;;;;;;;;;;;8.80;99.90;;;;;;5095563;28;20003;-53
2023/05/05 01:52:12;;;;;;;;;;;8.80;99.90;;;;;;5111102;28;19912;-53
2023/05/05 01:54:39;;;;;;;;;;;8.90;99.90;;;;;;5077318;28;19912;-53
2023/05/05 01:57:06;;;;;;;;;;;8.80;99.90;;;;;;5095320;28;19908;-53
2023/05/05 01:59:32;;;;;;;;;;;8.70;99.90;;;;;;5111147;28;19924;-53
2023/05/05 02:01:59;;;;;;;;;;;8.70;99.90;;;;;;5077333;28;19927;-53
2023/05/05 02:04:26;;;;;;;;;;;8.60;99.90;;;;;;5077066;28;19978;-53
2023/05/05 02:06:53;;;;;;;;;;;8.50;99.90;;;;;;5095276;28;20381;-53
2023/05/05 02:09:20;;;;;;;;;;;8.40;99.90;;;;;;5095369;28;19920;-53
2023/05/05 02:11:46;;;;;;;;;;;8.40;99.90;;;;;;5095135;28;20328;-53
2023/05/05 02:14:12;;;;;;;;;;;8.30;99.90;;;;;;5077007;28;19916;-53
2023/05/05 02:16:40;;;;;;;;;;;8.30;99.90;;;;;;5095077;28;19912;-53
2023/05/05 02:19:06;;;;;;;;;;;8.40;99.90;;;;;;5076743;28;19920;-53
2023/05/05 02:21:32;;;;;;;;;;;8.30;99.90;;;;;;5094641;28;20015;-53
2023/05/05 02:23:58;;;;;;;;;;;8.30;99.90;;;;;;5094846;28;19912;-53
2023/05/05 02:26:25;;;;;;;;;;;8.40;99.90;;;;;;5095097;28;19919;-53
2023/05/05 02:29:00;;;;;;;;;;;8.40;99.90;;;;;;5077051;28;19916;-53
2023/05/05 02:31:27;;;;;;;;;;;8.40;99.90;;;;;;5095070;28;20454;-53
2023/05/05 02:33:54;;;;;;;;;;;8.50;99.90;;;;;;5110541;28;19916;-53
2023/05/05 02:36:22;;;;;;;;;;;8.50;99.90;;;;;;5076737;28;20428;-53
2023/05/05 02:39:00;;;;;;;;;;;8.40;99.90;;;;;;5076896;28;20385;-53
2023/05/05 02:41:28;;;;;;;;;;;8.30;99.90;;;;;;5076510;28;19923;-53
2023/05/05 02:43:55;;;;;;;;;;;8.30;99.90;;;;;;5110573;28;19919;-53
2023/05/05 02:46:21;;;;;;;;;;;8.10;99.90;;;;;;5076629;28;19913;-53
2023/05/05 02:48:47;;;;;;;;;;;8.10;99.90;;;;;;5094600;28;19919;-53
2023/05/05 02:51:13;;;;;;;;;;;8.10;99.90;;;;;;5076724;28;19912;-53
2023/05/05 02:53:40;;;;;;;;;;;8.10;99.90;;;;;;5076526;28;20354;-53
2023/05/05 02:56:21;;;;;;;;;;;8.10;99.90;;;;;;5076496;28;19912;-53
2023/05/05 02:58:54;;;;;;;;;;;8.00;99.90;;;;;;5110330;28;19916;-53
2023/05/05 03:01:26;;;;;;;;;;;7.80;99.90;;;;;;5076493;28;19924;-53
2023/05/05 03:03:56;;;;;;;;;;;7.70;99.90;;;;;;5076353;28;19920;-53
2023/05/05 03:06:23;;;;;;;;;;;7.70;99.90;;;;;;5076567;28;19958;-53
2023/05/05 03:08:53;;;;;;;;;;;7.70;99.90;;;;;;5076234;28;19923;-53
2023/05/05 03:11:30;;;;;;;;;;;7.70;99.90;;;;;;5076615;28;20397;-53
2023/05/05 03:14:00;;;;;;;;;;;7.70;99.90;;;;;;5076366;28;19916;-53
2023/05/05 03:16:27;;;;;;;;;;;7.80;99.90;;;;;;5076226;28;19916;-53
2023/05/05 03:18:52;;;;;;;;;;;7.60;99.90;;;;;;5076346;28;19927;-53
2023/05/05 03:21:20;;;;;;;;;;;7.60;99.90;;;;;;5076395;28;19966;-53
2023/05/05 03:23:46;;;;;;;;;;;7.60;99.90;;;;;;5110088;28;19935;-53
2023/05/05 03:26:18;;;;;;;;;;;7.60;99.90;;;;;;5076309;28;19912;-53
2023/05/05 03:28:44;;;;;;;;;;;7.60;99.90;;;;;;5076609;28;19919;-53
2023/05/05 03:31:27;;;;;;;;;;;7.70;99.90;;;;;;5094416;28;20073;-53
2023/05/05 03:33:56;;;;;;;;;;;7.70;99.90;;;;;;5077812;28;19916;-53
2023/05/05 03:36:26;;;;;;;;;;;7.70;99.90;;;;;;5080020;28;20413;-53
2023/05/05 03:38:52;;;;;;;;;;;7.70;99.90;;;;;;5079634;28;19947;-53
2023/05/05 03:41:21;;;;;;;;;;;7.70;99.90;;;;;;5079661;28;20373;-53
2023/05/05 03:43:46;;;;;;;;;;;7.70;99.90;;;;;;5098171;28;19915;-53
2023/05/05 03:46:13;;;;;;;;;;;7.70;99.90;;;;;;5079713;28;19912;-53
2023/05/05 03:48:40;;;;;;;;;;;7.70;99.90;;;;;;5079800;28;19961;-53
2023/05/05 03:51:06;;;;;;;;;;;7.60;99.90;;;;;;5098367;28;20453;-53
2023/05/05 03:53:33;;;;;;;;;;;7.60;99.90;;;;;;5079438;28;19931;-53
2023/05/05 03:56:03;;;;;;;;;;;7.60;99.90;;;;;;5079591;28;19958;-53
2023/05/05 03:58:29;;;;;;;;;;;7.70;99.90;;;;;;5079572;28;19912;-53
2023/05/05 04:00:56;;;;;;;;;;;7.80;99.90;;;;;;5097092;28;19913;-53
2023/05/05 04:03:21;;;;;;;;;;;7.80;99.90;;;;;;5113156;28;20322;-53
2023/05/05 04:05:47;;;;;;;;;;;7.90;99.90;;;;;;5079094;28;19912;-54
2023/05/05 04:08:13;;;;;;;;;;;7.90;99.90;;;;;;5079215;28;19955;-53
2023/05/05 04:10:39;;;;;;;;;;;8.00;99.90;;;;;;5079236;28;19967;-53
2023/05/05 04:13:06;;;;;;;;;;;8.10;99.90;;;;;;5079030;28;19919;-53
2023/05/05 04:15:32;;;;;;;;;;;8.10;99.90;;;;;;5097351;28;19916;-53
2023/05/05 04:17:58;;;;;;;;;;;8.00;99.90;;;;;;5079217;28;19926;-54
2023/05/05 04:20:24;;;;;;;;;;;8.20;99.90;;;;;;5078959;28;19924;-54
2023/05/05 04:22:50;;;;;;;;;;;8.20;99.90;;;;;;5112836;28;19920;-54
2023/05/05 04:25:16;;;;;;;;;;;8.30;99.90;;;;;;5097351;28;19923;-54
2023/05/05 04:27:43;;;;;;;;;;;8.50;99.90;;;;;;5078914;28;20285;-54
2023/05/05 04:30:09;;;;;;;;;;;8.60;99.90;;;;;;5112593;28;19920;-54
2023/05/05 04:32:37;;;;;;;;;;;8.70;99.90;;;;;;5078925;28;19916;-54
2023/05/05 04:35:04;;;;;;;;;;;8.80;99.90;;;;;;5078660;28;20057;-54
2023/05/05 04:37:31;;;;;;;;;;;8.90;99.90;;;;;;5078816;28;19920;-54
2023/05/05 04:39:58;;;;;;;;;;;8.90;99.90;;;;;;5078766;28;19912;-54
2023/05/05 04:42:23;;;;;;;;;;;9.00;99.90;;;;;;5096546;28;19923;-54
2023/05/05 04:44:49;;;;;;;;;;;9.10;99.90;;;;;;5077714;28;20261;-54
2023/05/05 04:47:16;;;;;;;;;;;9.30;99.90;;;;;;5078595;28;19950;-54
2023/05/05 04:49:43;;;;;;;;;;;9.40;99.90;;;;;;5078203;28;20326;-54
2023/05/05 04:52:11;;;;;;;;;;;9.40;99.90;;;;;;5096630;28;20083;-54
2023/05/05 04:54:37;;;;;;;;;;;9.40;99.90;;;;;;5078393;28;19927;-54
2023/05/05 04:57:03;;;;;;;;;;;9.50;99.90;;;;;;5078241;28;19916;-54
2023/05/05 04:59:28;;;;;;;;;;;9.70;99.90;;;;;;5096449;28;20042;-54
2023/05/05 05:01:54;;;;;;;;;;;9.80;99.90;;;;;;5078192;28;19920;-54
2023/05/05 05:04:21;;;;;;;;;;;9.70;99.90;;;;;;5096177;28;19923;-54
2023/05/05 05:06:47;;;;;;;;;;;9.60;99.90;;;;;;5078235;28;20373;-54
2023/05/05 05:09:13;;;;;;;;;;;9.80;99.90;;;;;;5096120;28;20364;-54
2023/05/05 05:11:38;;;;;;;;;;;9.80;99.90;;;;;;5095990;28;19961;-54
2023/05/05 05:14:04;;;;;;;;;;;9.70;99.90;;;;;;5077843;28;19919;-54
2023/05/05 05:16:30;;;;;;;;;;;9.70;99.90;;;;;;5077795;28;20447;-54
2023/05/05 05:18:56;;;;;;;;;;;10.00;99.90;;;;;;5077553;28;19971;-54
2023/05/05 05:21:22;;;;;;;;;;;10.00;99.90;;;;;;5077334;28;19927;-54
2023/05/05 05:23:48;;;;;;;;;;;10.00;99.90;;;;;;5075593;28;20369;-54
2023/05/05 05:26:15;;;;;;;;;;;10.10;99.90;;;;;;5095560;28;19920;-54
2023/05/05 05:28:41;;;;;;;;;;;10.30;99.90;;;;;;5059567;28;19944;-54
2023/05/05 05:31:07;;;;;;;;;;;10.50;99.90;;;;;;5057441;28;19916;-54
2023/05/05 05:33:36;;;;;;;;;;;10.60;99.90;;;;;;5057253;28;19916;-54
2023/05/05 05:36:02;;;;;;;;;;;10.70;99.90;;;;;;5091118;28;19919;-54
2023/05/05 05:38:28;;;;;;;;;;;10.80;99.90;;;;;;5057316;28;19909;-54
2023/05/05 05:40:57;;;;;;;;;;;10.90;99.90;;;;;;5055121;28;19958;-54
2023/05/05 05:43:24;;;;;;;;;;;10.80;99.90;;;;;;5056579;28;20058;-54
2023/05/05 05:45:50;;;;;;;;;;;10.80;99.90;;;;;;5074456;28;20007;-54
2023/05/05 05:48:16;;;;;;;;;;;10.90;99.90;;;;;;5054278;28;19992;-54
2023/05/05 05:50:42;;;;;;;;;;;11.10;99.90;;;;;;5075083;28;20346;-54
2023/05/05 05:53:08;;;;;;;;;;;11.10;99.90;;;;;;5066460;28;19939;-54
2023/05/05 05:55:34;;;;;;;;;;;11.10;99.90;;;;;;5073076;28;19988;-54
2023/05/05 05:58:01;;;;;;;;;;;11.20;99.90;;;;;;5056275;28;19966;-54
2023/05/05 06:00:27;;;;;;;;;;;11.20;99.90;;;;;;5054248;28;19924;-54
2023/05/05 06:03:00;;;;;;;;;;;11.50;99.90;;;;;;5054372;28;19920;-54
2023/05/05 06:05:30;;;;;;;;;;;11.80;99.90;;;;;;5070527;28;19912;-54
2023/05/05 06:07:56;;;;;;;;;;;12.10;99.90;;;;;;5055734;28;19913;-54
2023/05/05 06:10:24;;;;;;;;;;;12.30;99.90;;;;;;5073787;28;19921;-54
2023/05/05 06:12:50;;;;;;;;;;;12.50;99.90;;;;;;5054054;28;20209;-54
2023/05/05 06:15:15;;;;;;;;;;;12.40;99.90;;;;;;5054566;28;20643;-54
2023/05/05 06:17:42;;;;;;;;;;;12.60;99.90;;;;;;5071012;28;20385;-54
2023/05/05 06:20:12;;;;;;;;;;;12.90;99.90;;;;;;5074662;28;19935;-54
2023/05/05 06:22:39;;;;;;;;;;;13.00;99.90;;;;;;5054845;28;19931;-54
2023/05/05 06:25:05;;;;;;;;;;;12.90;99.90;;;;;;5054721;28;19913;-54
2023/05/05 06:27:31;;;;;;;;;;;13.10;99.90;;;;;;5089083;28;20334;-54
2023/05/05 06:29:57;;;;;;;;;;;13.50;99.90;;;;;;5070869;28;19999;-54
2023/05/05 06:32:22;;;;;;;;;;;13.70;99.90;;;;;;5073410;28;19982;-54
2023/05/05 06:34:48;;;;;;;;;;;13.80;99.90;;;;;;5073537;28;19935;-54
2023/05/05 06:37:14;;;;;;;;;;;13.80;99.90;;;;;;5070799;28;19959;-54
2023/05/05 06:39:40;;;;;;;;;;;14.00;99.90;;;;;;5073809;28;19966;-54
2023/05/05 06:42:06;;;;;;;;;;;14.20;99.90;;;;;;5072091;28;19940;-54
2023/05/05 06:44:33;;;;;;;;;;;14.50;99.90;;;;;;5073405;28;19916;-54
2023/05/05 06:46:59;;;;;;;;;;;14.60;99.90;;;;;;5074386;28;19938;-54
2023/05/05 06:49:24;;;;;;;;;;;14.80;99.90;;;;;;5073731;28;19909;-54
2023/05/05 06:51:50;;;;;;;;;;;15.00;99.90;;;;;;5074311;28;20026;-54
2023/05/05 06:54:16;;;;;;;;;;;15.10;99.90;;;;;;5074360;28;19942;-54
2023/05/05 06:56:45;;;;;;;;;;;15.30;99.90;;;;;;5073436;28;19912;-54
2023/05/05 06:59:19;;;;;;;;;;;15.50;99.90;;;;;;5071616;28;19920;-54
2023/05/05 07:01:46;;;;;;;;;;;15.70;99.90;;;;;;5072867;28;20015;-54
2023/05/05 07:04:12;;;;;;;;;;;16.00;99.90;;;;;;5069212;28;20027;-54
2023/05/05 07:06:38;;;;;;;;;;;16.30;99.90;;;;;;5069822;28;20003;-54
2023/05/05 07:09:03;;;;;;;;;;;16.60;99.90;;;;;;5068197;28;20380;-54
2023/05/05 07:11:29;;;;;;;;;;;16.80;99.90;;;;;;5072456;28;20418;-54
2023/05/05 07:13:55;;;;;;;;;;;16.80;99.90;;;;;;5056233;28;20338;-54
2023/05/05 07:16:21;;;;;;;;;;;17.20;99.90;;;;;;5067406;28;20379;-54
2023/05/05 07:18:47;;;;;;;;;;;17.40;99.90;;;;;;5073875;28;20373;-54
2023/05/05 07:21:12;;;;;;;;;;;17.50;99.90;;;;;;5086600;28;20294;-54
2023/05/05 07:23:41;;;;;;;;;;;17.80;99.90;;;;;;5082978;28;19912;-54
2023/05/05 07:26:07;;;;;;;;;;;18.10;99.90;;;;;;5089930;28;19927;-54
2023/05/05 07:28:33;;;;;;;;;;;18.40;99.90;;;;;;5096324;28;19943;-54
2023/05/05 07:30:59;;;;;;;;;;;18.60;99.90;;;;;;5088818;28;20014;-54
2023/05/05 07:33:25;;;;;;;;;;;19.00;99.90;;;;;;5071409;28;19959;-54
2023/05/05 07:35:50;;;;;;;;;;;19.30;99.00;;;;;;5066087;28;19921;-55
2023/05/05 07:38:16;;;;;;;;;;;19.50;96.70;;;;;;5058892;28;19912;-54
2023/05/05 07:40:42;;;;;;;;;;;19.70;96.30;;;;;;5068574;28;19916;-54
2023/05/05 07:43:08;;;;;;;;;;;19.90;96.40;;;;;;5074455;28;19924;-54
2023/05/05 07:45:34;;;;;;;;;;;19.90;96.00;;;;;;5073694;28;19919;-55
2023/05/05 07:47:59;;;;;;;;;;;20.10;95.00;;;;;;5075416;28;19966;-54
2023/05/05 08:00:52;;;;;;;;;;;21.00;93.60;;;;;;5035096;28;19923;-55
2023/05/05 08:03:20;;;;;;;;;;;21.50;91.10;;;;;;5063336;28;19913;-55
2023/05/05 08:05:46;;;;;;;;;;;21.60;89.80;;;;;;5076916;28;19934;-55
2023/05/05 08:08:11;;;;;;;;;;;21.90;87.60;;;;;;5077104;28;19924;-54
2023/05/05 08:10:37;;;;;;;;;;;21.80;81.80;;;;;;5071536;28;19917;-55
2023/05/05 08:13:03;;;;;;;;;;;21.70;83.60;;;;;;5056467;28;19913;-54
2023/05/05 08:15:29;;;;;;;;;;;22.00;83.10;;;;;;5038633;28;19913;-54
2023/05/05 08:17:55;;;;;;;;;;;22.20;81.80;;;;;;5056462;28;20375;-54
2023/05/05 08:20:21;;;;;;;;;;;22.50;79.20;;;;;;5067599;28;19990;-64
2023/05/05 08:22:47;;;;;;;;;;;22.40;79.20;;;;;;5070293;28;19916;-64
2023/05/05 08:25:13;;;;;;;;;;;22.70;76.90;;;;;;5068087;28;20510;-64
2023/05/05 08:27:39;;;;;;;;;;;23.10;75.60;;;;;;5059787;28;19916;-64
2023/05/05 08:30:06;;;;;;;;;;;23.10;74.50;;;;;;5077336;28;19915;-64
2023/05/05 08:32:32;;;;;;;;;;;23.40;73.20;;;;;;5076169;28;20373;-64
2023/05/05 08:34:59;;;;;;;;;;;23.60;74.10;;;;;;5077386;28;19908;-64
2023/05/05 08:37:28;;;;;;;;;;;23.80;69.40;;;;;;5074735;28;19936;-64
2023/05/05 08:39:55;;;;;;;;;;;23.70;70.80;;;;;;5072882;28;19948;-64
2023/05/05 08:42:21;;;;;;;;;;;24.20;68.70;;;;;;5066481;28;20019;-64
2023/05/05 08:44:47;;;;;;;;;;;24.10;65.80;;;;;;5071969;28;19959;-64
2023/05/05 08:47:16;;;;;;;;;;;24.20;68.40;;;;;;5085746;28;19919;-64
2023/05/05 08:49:44;;;;;;;;;;;24.50;65.40;;;;;;5076121;28;20007;-64
2023/05/05 08:52:12;;;;;;;;;;;24.80;63.00;;;;;;5075160;28;19963;-65
2023/05/05 08:54:41;;;;;;;;;;;24.30;65.60;;;;;;5062547;28;19935;-64
2023/05/05 08:57:09;;;;;;;;;;;24.80;61.40;;;;;;5085755;28;19912;-65
2023/05/05 08:59:36;;;;;;;;;;;24.60;60.60;;;;;;5096381;28;19919;-65
2023/05/05 09:02:02;;;;;;;;;;;24.90;59.90;;;;;;5086820;28;19917;-64
2023/05/05 09:04:28;;;;;;;;;;;24.70;64.80;;;;;;5067052;28;19913;-64
2023/05/05 09:06:56;;;;;;;;;;;24.70;62.70;;;;;;5055042;28;19924;-64
2023/05/05 09:09:22;;;;;;;;;;;25.00;59.90;;;;;;5067692;28;19913;-64
2023/05/05 09:11:50;;;;;;;;;;;25.30;59.60;;;;;;5077705;28;19919;-65
2023/05/05 09:14:16;;;;;;;;;;;25.40;60.10;;;;;;5090667;28;19922;-64
2023/05/05 09:16:42;;;;;;;;;;;24.50;60.70;;;;;;5090237;28;19916;-65
2023/05/05 09:19:08;;;;;;;;;;;25.20;62.30;;;;;;5092736;28;20389;-64
2023/05/05 09:21:34;;;;;;;;;;;25.60;61.80;;;;;;5095003;28;20016;-65
2023/05/05 09:24:11;;;;;;;;;;;26.10;56.90;;;;;;5081510;28;21318;-65
2023/05/05 09:26:43;;;;;;;;;;;26.00;59.50;;;;;;5070138;28;19916;-64
2023/05/05 09:29:09;;;;;;;;;;;25.50;56.50;;;;;;5075090;28;19919;-64
2023/05/05 09:31:35;;;;;;;;;;;25.70;59.40;;;;;;5075858;28;19912;-64
2023/05/05 09:34:12;;;;;;;;;;;24.30;59.20;;;;;;5074458;28;19963;-64
2023/05/05 09:36:47;;;;;;;;;;;23.70;58.50;;;;;;5087580;28;19938;-65
2023/05/05 09:39:16;;;;;;;;;;;23.70;59.90;;;;;;5094816;28;20394;-64
2023/05/05 09:41:43;;;;;;;;;;;24.80;58.60;;;;;;5094097;28;19970;-64
2023/05/05 09:44:09;;;;;;;;;;;25.50;58.60;;;;;;5091063;28;19915;-65
2023/05/05 09:46:35;;;;;;;;;;;26.20;59.50;;;;;;5075527;28;19912;-64
2023/05/05 09:49:30;;;;;;;;;;;26.30;55.10;;;;;;5075809;28;19920;-64
2023/05/05 09:51:56;;;;;;;;;;;26.40;53.80;;;;;;5058221;28;19913;-65
2023/05/05 09:54:26;;;;;;;;;;;25.80;53.90;;;;;;5075841;28;19912;-65
2023/05/05 09:56:52;;;;;;;;;;;26.10;54.20;;;;;;5075673;28;19916;-64
2023/05/05 09:59:18;;;;;;;;;;;25.90;54.00;;;;;;5088979;28;20372;-64
2023/05/05 10:01:44;;;;;;;;;;;26.30;55.00;;;;;;5095786;28;19916;-64
2023/05/05 10:04:23;;;;;;;;;;;25.60;53.70;;;;;;5095443;28;19912;-65
2023/05/05 10:06:49;;;;;;;;;;;24.90;52.70;;;;;;5095933;28;19971;-64
2023/05/05 10:09:17;;;;;;;;;;;25.10;53.60;;;;;;5095580;28;19912;-65
2023/05/05 10:11:45;;;;;;;;;;;25.70;55.20;;;;;;5095376;28;19918;-65
2023/05/05 10:14:16;;;;;;;;;;;25.10;52.80;;;;;;5094751;28;20290;-65
2023/05/05 10:16:45;;;;;;;;;;;25.90;56.30;;;;;;5089768;28;19924;-65
2023/05/05 10:19:13;;;;;;;;;;;26.40;54.70;;;;;;5073602;28;19931;-65
2023/05/05 10:21:39;;;;;;;;;;;26.60;53.50;;;;;;5087234;28;19952;-65
2023/05/05 10:24:05;;;;;;;;;;;26.60;50.20;;;;;;5066227;28;19919;-65
2023/05/05 10:26:33;;;;;;;;;;;26.00;51.60;;;;;;5067436;28;19913;-65
2023/05/05 10:29:02;;;;;;;;;;;26.00;53.50;;;;;;5082424;28;19912;-65
2023/05/05 10:31:32;;;;;;;;;;;26.00;52.90;;;;;;5088548;28;19949;-65
2023/05/05 10:33:57;;;;;;;;;;;25.90;53.10;;;;;;5081761;28;19916;-65
2023/05/05 10:36:23;;;;;;;;;;;25.70;53.30;;;;;;5085212;28;19916;-65
2023/05/05 10:38:53;;;;;;;;;;;25.10;53.80;;;;;;5094152;28;19922;-65
2023/05/05 10:41:19;;;;;;;;;;;25.00;55.00;;;;;;5089215;28;20573;-66
2023/05/05 10:43:45;;;;;;;;;;;25.20;56.70;;;;;;5066787;28;19967;-65
2023/05/05 10:46:11;;;;;;;;;;;25.70;55.60;;;;;;5084782;28;19961;-66
2023/05/05 10:48:56;;;;;;;;;;;25.70;55.20;;;;;;5096912;28;20334;-65
2023/05/05 10:51:26;;;;;;;;;;;26.40;56.10;;;;;;5097966;28;19920;-65
2023/05/05 10:53:58;;;;;;;;;;;26.00;55.80;;;;;;5097487;28;19916;-65
2023/05/05 10:56:30;;;;;;;;;;;26.70;51.20;;;;;;5098722;28;20000;-65
2023/05/05 10:58:55;;;;;;;;;;;26.90;52.30;;;;;;5090576;28;19912;-65
2023/05/05 11:01:29;;;;;;;;;;;26.70;49.80;;;;;;5090678;28;19920;-65
2023/05/05 11:04:27;;;;;;;;;;;27.10;50.70;;;;;;5097987;28;19912;-65
2023/05/05 11:07:08;;;;;;;;;;;27.20;50.00;;;;;;5057039;28;19916;-65
2023/05/05 11:09:41;;;;;;;;;;;27.10;47.40;;;;;;5096270;28;19912;-65
2023/05/05 11:12:07;;;;;;;;;;;27.00;47.50;;;;;;5098089;28;19912;-66
2023/05/05 11:14:33;;;;;;;;;;;26.30;53.10;;;;;;5098233;28;20240;-66
2023/05/05 11:16:59;;;;;;;;;;;27.00;50.20;;;;;;5098353;28;19918;-66
2023/05/05 11:19:44;;;;;;;;;;;27.40;48.70;;;;;;5097841;28;20289;-66
2023/05/05 11:22:10;;;;;;;;;;;27.40;49.60;;;;;;5096596;28;19926;-66
2023/05/05 11:24:38;;;;;;;;;;;26.60;47.20;;;;;;5098159;28;20093;-66
2023/05/05 11:27:04;;;;;;;;;;;26.40;50.40;;;;;;5098104;28;19947;-66
2023/05/05 11:29:48;;;;;;;;;;;26.10;52.10;;;;;;5097196;28;20384;-66
2023/05/05 11:32:18;;;;;;;;;;;25.00;51.90;;;;;;5096617;28;19919;-66
2023/05/05 11:34:48;;;;;;;;;;;25.80;55.10;;;;;;5097737;28;20053;-65
2023/05/05 11:37:15;;;;;;;;;;;26.90;52.70;;;;;;5095910;28;19965;-66
2023/05/05 11:39:43;;;;;;;;;;;27.30;49.70;;;;;;5077737;28;20720;-66
2023/05/05 11:42:24;;;;;;;;;;;27.20;50.10;;;;;;5077393;28;19920;-66
2023/05/05 11:44:51;;;;;;;;;;;27.10;49.90;;;;;;5078997;28;19950;-66
2023/05/05 11:47:16;;;;;;;;;;;26.60;49.80;;;;;;5109377;28;19924;-66
2023/05/05 11:49:42;;;;;;;;;;;26.40;48.20;;;;;;5084579;28;20366;-66
2023/05/05 11:52:12;;;;;;;;;;;26.50;48.60;;;;;;5094524;28;19963;-66
2023/05/05 11:54:39;;;;;;;;;;;26.80;49.20;;;;;;5096996;28;19922;-66
2023/05/05 11:57:06;;;;;;;;;;;26.70;47.30;;;;;;5093407;28;19959;-67
2023/05/05 11:59:33;;;;;;;;;;;26.80;49.40;;;;;;5086517;28;19919;-66
2023/05/05 12:01:59;;;;;;;;;;;26.50;46.80;;;;;;5095606;28;20382;-66
2023/05/05 12:04:25;;;;;;;;;;;26.40;47.80;;;;;;5090464;28;19963;-66
2023/05/05 12:06:51;;;;;;;;;;;26.30;48.90;;;;;;5094128;28;19955;-66
2023/05/05 12:09:17;;;;;;;;;;;25.40;45.30;;;;;;5095996;28;19920;-66
2023/05/05 12:11:51;;;;;;;;;;;25.20;46.40;;;;;;5095900;28;19912;-66
2023/05/05 12:14:17;;;;;;;;;;;24.80;47.70;;;;;;5094193;28;20388;-65
2023/05/05 12:17:03;;;;;;;;;;;25.20;50.30;;;;;;5094598;28;19916;-66
2023/05/05 12:19:32;;;;;;;;;;;25.70;49.80;;;;;;5081880;28;19953;-66
2023/05/05 12:22:01;;;;;;;;;;;25.60;49.30;;;;;;5095366;28;19920;-65
2023/05/05 12:24:29;;;;;;;;;;;25.70;49.00;;;;;;5094451;28;19918;-65
2023/05/05 12:26:55;;;;;;;;;;;25.50;49.90;;;;;;5093730;28;20012;-66
2023/05/05 12:29:24;;;;;;;;;;;24.90;49.00;;;;;;5095592;28;19954;-65
2023/05/05 12:31:50;;;;;;;;;;;24.50;51.20;;;;;;5095353;28;19920;-66
2023/05/05 12:34:16;;;;;;;;;;;23.70;49.40;;;;;;5096421;28;19966;-66
2023/05/05 12:36:42;;;;;;;;;;;23.20;50.60;;;;;;5096233;28;20395;-66
2023/05/05 12:39:08;;;;;;;;;;;23.90;53.80;;;;;;5095492;28;19916;-66
2023/05/05 12:41:35;;;;;;;;;;;24.70;52.80;;;;;;5095646;28;19915;-66
2023/05/05 12:44:04;;;;;;;;;;;25.50;50.90;;;;;;5099523;28;19973;-66
2023/05/05 12:46:42;;;;;;;;;;;25.70;46.50;;;;;;5096508;28;19916;-66
2023/05/05 12:49:09;;;;;;;;;;;25.70;46.00;;;;;;5096200;28;20007;-66
2023/05/05 12:51:35;;;;;;;;;;;26.10;45.80;;;;;;5087998;28;19952;-66
2023/05/05 12:54:08;;;;;;;;;;;26.00;44.10;;;;;;5095945;28;19923;-66
2023/05/05 12:56:36;;;;;;;;;;;26.00;45.20;;;;;;5096161;28;19919;-65
2023/05/05 12:59:05;;;;;;;;;;;26.40;43.60;;;;;;5096034;28;19916;-66
2023/05/05 13:01:31;;;;;;;;;;;26.70;44.40;;;;;;5095953;28;20413;-66
2023/05/05 13:04:03;;;;;;;;;;;26.40;42.90;;;;;;5096059;28;20013;-65
2023/05/05 13:06:32;;;;;;;;;;;26.20;45.70;;;;;;5095560;28;20310;-65
2023/05/05 13:08:58;;;;;;;;;;;26.30;43.70;;;;;;5095681;28;19916;-66
2023/05/05 13:11:24;;;;;;;;;;;25.60;43.90;;;;;;5095630;28;20298;-66
2023/05/05 13:13:49;;;;;;;;;;;25.60;43.50;;;;;;5091470;28;19913;-66
2023/05/05 13:16:16;;;;;;;;;;;25.70;45.90;;;;;;5075961;28;19912;-66
2023/05/05 13:18:49;;;;;;;;;;;26.20;45.10;;;;;;5093489;28;19924;-66
2023/05/05 13:21:15;;;;;;;;;;;26.00;43.10;;;;;;5095051;28;19962;-66
2023/05/05 13:23:41;;;;;;;;;;;25.80;43.40;;;;;;5095287;28;19922;-66
2023/05/05 13:26:07;;;;;;;;;;;25.70;43.90;;;;;;5096155;28;19912;-66
2023/05/05 13:28:33;;;;;;;;;;;25.90;43.40;;;;;;5095902;28;19923;-65
2023/05/05 13:30:59;;;;;;;;;;;25.80;44.10;;;;;;5095997;28;19965;-66
2023/05/05 13:33:25;;;;;;;;;;;26.10;43.60;;;;;;5095892;28;19912;-66
2023/05/05 13:35:50;;;;;;;;;;;26.10;44.50;;;;;;5095580;28;19916;-66
2023/05/05 13:38:16;;;;;;;;;;;25.70;43.60;;;;;;5095791;28;19996;-66
2023/05/05 13:40:42;;;;;;;;;;;26.10;45.30;;;;;;5095845;28;19912;-66
2023/05/05 13:43:08;;;;;;;;;;;26.00;44.30;;;;;;5095418;28;20011;-66
2023/05/05 13:45:33;;;;;;;;;;;26.10;43.80;;;;;;5111419;28;19916;-66
2023/05/05 13:47:59;;;;;;;;;;;25.90;43.00;;;;;;5116242;28;19918;-66
2023/05/05 13:50:25;;;;;;;;;;;25.90;44.70;;;;;;5115852;28;19912;-66
2023/05/05 13:52:51;;;;;;;;;;;25.70;44.40;;;;;;5115850;28;19973;-66
2023/05/05 13:55:17;;;;;;;;;;;25.30;46.20;;;;;;5115905;28;19922;-66
2023/05/05 13:57:42;;;;;;;;;;;25.20;47.90;;;;;;5115416;28;19912;-66
2023/05/05 14:00:08;;;;;;;;;;;24.80;45.00;;;;;;5116021;28;19919;-66
2023/05/05 14:02:34;;;;;;;;;;;24.60;49.80;;;;;;5115495;28;19962;-66
2023/05/05 14:05:00;;;;;;;;;;;24.40;52.30;;;;;;5115652;28;19916;-65
2023/05/05 14:07:26;;;;;;;;;;;24.40;49.00;;;;;;5115891;28;19922;-66
2023/05/05 14:09:52;;;;;;;;;;;24.30;48.10;;;;;;5115230;28;19912;-65
2023/05/05 14:12:18;;;;;;;;;;;24.20;48.70;;;;;;5115472;28;19916;-66
2023/05/05 14:14:44;;;;;;;;;;;24.10;47.30;;;;;;5115639;28;19911;-66
2023/05/05 14:17:10;;;;;;;;;;;24.20;47.50;;;;;;5115810;28;19912;-65
2023/05/05 14:19:36;;;;;;;;;;;24.50;48.00;;;;;;5115156;28;19926;-65
2023/05/05 14:22:01;;;;;;;;;;;24.70;47.20;;;;;;5115666;28;19923;-65
2023/05/05 14:24:27;;;;;;;;;;;24.90;48.00;;;;;;5115440;28;20006;-66
2023/05/05 14:26:53;;;;;;;;;;;24.60;45.10;;;;;;5115269;28;19915;-65
2023/05/05 14:29:19;;;;;;;;;;;24.70;46.50;;;;;;5115448;28;19962;-65
2023/05/05 14:31:44;;;;;;;;;;;24.80;45.80;;;;;;5115333;28;19919;-65
2023/05/05 14:34:10;;;;;;;;;;;25.00;45.40;;;;;;5115213;28;19918;-65
2023/05/05 14:36:36;;;;;;;;;;;24.70;46.30;;;;;;5115333;28;19912;-66